createdAt,value
2016-07-25T00:00:01.205Z,7.19
2016-07-25T00:00:09.922Z,7.2
2016-07-25T00:00:18.639Z,7.15
2016-07-25T00:00:27.359Z,7.17
2016-07-25T00:00:36.071Z,7.17
2016-07-25T00:00:44.786Z,7.2
2016-07-25T00:00:53.490Z,7.22
2016-07-25T00:01:02.215Z,7.2
2016-07-25T00:01:10.926Z,7.16
2016-07-25T00:01:19.670Z,7.17
2016-07-25T00:01:28.405Z,7.2
2016-07-25T00:01:37.077Z,7.2
2016-07-25T00:01:45.808Z,7.22
2016-07-25T00:01:54.507Z,7.17
2016-07-25T00:02:03.225Z,7.16
2016-07-25T00:02:11.943Z,7.2
2016-07-25T00:02:20.669Z,7.22
2016-07-25T00:02:29.404Z,7.16
2016-07-25T00:02:38.145Z,7.23
2016-07-25T00:02:46.879Z,7.27
2016-07-25T00:02:55.568Z,7.24
2016-07-25T00:03:04.300Z,7.23
2016-07-25T00:03:13.121Z,7.27
2016-07-25T00:03:21.797Z,7.23
2016-07-25T00:03:30.500Z,7.22
2016-07-25T00:03:39.236Z,7.23
2016-07-25T00:03:47.964Z,7.16
2016-07-25T00:03:56.704Z,7.19
2016-07-25T00:04:05.404Z,7.19
2016-07-25T00:04:14.122Z,7.2
2016-07-25T00:04:22.802Z,7.16
2016-07-25T00:04:31.509Z,7.2
2016-07-25T00:04:40.231Z,7.17
2016-07-25T00:04:48.950Z,7.17
2016-07-25T00:04:57.675Z,7.26
2016-07-25T00:05:06.392Z,7.16
2016-07-25T00:05:15.122Z,7.17
2016-07-25T00:05:24.521Z,7.19
2016-07-25T00:05:33.262Z,7.22
2016-07-25T00:05:41.943Z,7.16
2016-07-25T00:05:50.689Z,7.17
2016-07-25T00:05:59.411Z,7.23
2016-07-25T00:06:08.109Z,7.2
2016-07-25T00:06:16.780Z,7.2
2016-07-25T00:06:25.466Z,7.17
2016-07-25T00:06:34.161Z,7.23
2016-07-25T00:06:42.894Z,7.26
2016-07-25T00:06:51.594Z,7.26
2016-07-25T00:07:00.322Z,7.2
2016-07-25T00:07:09.051Z,7.23
2016-07-25T00:07:17.795Z,7.2
2016-07-25T00:07:26.499Z,7.16
2016-07-25T00:07:35.193Z,7.15
2016-07-25T00:07:43.886Z,7.16
2016-07-25T00:07:52.598Z,7.19
2016-07-25T00:08:01.295Z,7.2
2016-07-25T00:08:09.972Z,7.17
2016-07-25T00:08:18.673Z,7.22
2016-07-25T00:08:27.352Z,7.17
2016-07-25T00:08:36.060Z,7.2
2016-07-25T00:08:44.762Z,7.2
2016-07-25T00:08:53.475Z,7.16
2016-07-25T00:09:02.194Z,7.19
2016-07-25T00:09:10.907Z,7.16
2016-07-25T00:09:19.603Z,7.2
2016-07-25T00:09:28.339Z,7.26
2016-07-25T00:09:37.067Z,7.22
2016-07-25T00:09:45.778Z,7.2
2016-07-25T00:09:55.207Z,7.22
2016-07-25T00:10:03.919Z,7.16
2016-07-25T00:10:12.664Z,7.17
2016-07-25T00:10:21.398Z,7.17
2016-07-25T00:10:30.078Z,7.23
2016-07-25T00:10:38.802Z,7.27
2016-07-25T00:10:47.525Z,7.2
2016-07-25T00:10:56.215Z,7.23
2016-07-25T00:11:04.936Z,7.22
2016-07-25T00:11:13.675Z,7.24
2016-07-25T00:11:22.395Z,7.22
2016-07-25T00:11:31.147Z,7.22
2016-07-25T00:11:39.890Z,7.22
2016-07-25T00:11:48.604Z,7.22
2016-07-25T00:11:57.283Z,7.22
2016-07-25T00:12:05.986Z,7.23
2016-07-25T00:12:14.711Z,7.17
2016-07-25T00:12:23.447Z,7.24
2016-07-25T00:12:32.136Z,7.24
2016-07-25T00:12:40.836Z,7.2
2016-07-25T00:12:49.535Z,7.22
2016-07-25T00:12:58.262Z,7.22
2016-07-25T00:13:06.957Z,7.22
2016-07-25T00:13:15.693Z,7.24
2016-07-25T00:13:24.379Z,7.32
2016-07-25T00:13:33.100Z,7.31
2016-07-25T00:13:41.829Z,7.27
2016-07-25T00:13:50.527Z,7.32
2016-07-25T00:13:59.185Z,7.29
2016-07-25T00:14:07.862Z,7.29
2016-07-25T00:14:16.557Z,7.35
2016-07-25T00:14:25.290Z,7.29
2016-07-25T00:14:34.005Z,7.29
2016-07-25T00:14:42.709Z,7.27
2016-07-25T00:14:51.397Z,7.29
2016-07-25T00:15:00.115Z,7.29
2016-07-25T00:15:08.805Z,7.27
2016-07-25T00:15:17.524Z,7.27
2016-07-25T00:15:26.223Z,7.29
2016-07-25T00:15:34.928Z,7.26
2016-07-25T00:15:43.653Z,7.31
2016-07-25T00:15:52.370Z,7.29
2016-07-25T00:16:01.098Z,7.26
2016-07-25T00:16:09.842Z,7.29
2016-07-25T00:16:19.235Z,7.26
2016-07-25T00:16:27.981Z,7.4
2016-07-25T00:16:36.727Z,7.45
2016-07-25T00:16:45.451Z,7.41
2016-07-25T00:16:54.145Z,7.38
2016-07-25T00:17:02.873Z,7.4
2016-07-25T00:17:11.582Z,7.38
2016-07-25T00:17:20.264Z,7.41
2016-07-25T00:17:28.969Z,7.41
2016-07-25T00:17:37.689Z,7.35
2016-07-25T00:17:46.457Z,7.44
2016-07-25T00:17:55.143Z,7.42
2016-07-25T00:18:03.837Z,7.4
2016-07-25T00:18:12.524Z,7.41
2016-07-25T00:18:21.275Z,7.42
2016-07-25T00:18:30.013Z,7.44
2016-07-25T00:18:38.696Z,7.4
2016-07-25T00:18:47.416Z,7.37
2016-07-25T00:18:56.107Z,7.52
2016-07-25T00:19:04.814Z,7.5
2016-07-25T00:19:13.532Z,7.45
2016-07-25T00:19:22.275Z,7.52
2016-07-25T00:19:30.994Z,7.53
2016-07-25T00:19:39.679Z,7.49
2016-07-25T00:19:48.370Z,7.56
2016-07-25T00:19:57.092Z,7.5
2016-07-25T00:20:05.803Z,7.56
2016-07-25T00:20:14.542Z,7.47
2016-07-25T00:20:23.250Z,7.5
2016-07-25T00:20:31.921Z,7.44
2016-07-25T00:20:40.609Z,7.5
2016-07-25T00:20:49.311Z,7.55
2016-07-25T00:20:58.058Z,7.45
2016-07-25T00:21:06.796Z,7.5
2016-07-25T00:21:15.521Z,7.45
2016-07-25T00:21:24.267Z,7.44
2016-07-25T00:21:32.982Z,7.53
2016-07-25T00:21:41.706Z,7.45
2016-07-25T00:21:50.428Z,7.45
2016-07-25T00:21:59.150Z,7.49
2016-07-25T00:22:07.871Z,7.6
2016-07-25T00:22:16.588Z,7.49
2016-07-25T00:22:25.322Z,7.49
2016-07-25T00:22:34.012Z,7.55
2016-07-25T00:22:42.759Z,7.47
2016-07-25T00:22:51.480Z,7.52
2016-07-25T00:23:00.226Z,7.49
2016-07-25T00:23:08.936Z,7.44
2016-07-25T00:23:17.675Z,7.45
2016-07-25T00:23:26.391Z,7.45
2016-07-25T00:23:35.093Z,7.44
2016-07-25T00:23:43.804Z,7.47
2016-07-25T00:23:52.487Z,7.47
2016-07-25T00:24:01.211Z,7.59
2016-07-25T00:24:09.936Z,7.6
2016-07-25T00:24:18.652Z,7.47
2016-07-25T00:24:27.413Z,7.56
2016-07-25T00:24:36.160Z,7.58
2016-07-25T00:24:44.920Z,7.59
2016-07-25T00:24:53.647Z,7.58
2016-07-25T00:25:02.364Z,7.6
2016-07-25T00:25:11.101Z,7.66
2016-07-25T00:25:19.839Z,7.49
2016-07-25T00:25:28.566Z,7.62
2016-07-25T00:25:37.278Z,7.59
2016-07-25T00:25:46.002Z,7.58
2016-07-25T00:25:54.722Z,7.49
2016-07-25T00:26:03.420Z,7.6
2016-07-25T00:26:12.117Z,7.66
2016-07-25T00:26:20.811Z,7.49
2016-07-25T00:26:29.564Z,7.66
2016-07-25T00:26:38.321Z,7.6
2016-07-25T00:26:47.060Z,7.56
2016-07-25T00:26:55.762Z,7.6
2016-07-25T00:27:04.496Z,7.58
2016-07-25T00:27:13.198Z,7.56
2016-07-25T00:27:21.919Z,7.6
2016-07-25T00:27:30.679Z,7.6
2016-07-25T00:27:39.427Z,7.47
2016-07-25T00:27:48.094Z,7.52
2016-07-25T00:27:56.815Z,7.56
2016-07-25T00:28:05.515Z,7.59
2016-07-25T00:28:14.227Z,7.58
2016-07-25T00:28:22.934Z,7.6
2016-07-25T00:28:31.608Z,7.49
2016-07-25T00:28:40.298Z,7.58
2016-07-25T00:28:49.064Z,7.59
2016-07-25T00:28:57.773Z,7.58
2016-07-25T00:29:06.488Z,7.52
2016-07-25T00:29:15.173Z,7.58
2016-07-25T00:29:23.887Z,7.49
2016-07-25T00:29:32.610Z,7.6
2016-07-25T00:29:41.346Z,7.59
2016-07-25T00:29:50.009Z,7.55
2016-07-25T00:29:58.695Z,7.58
2016-07-25T00:30:07.352Z,7.6
2016-07-25T00:30:16.057Z,7.59
2016-07-25T00:30:24.759Z,7.6
2016-07-25T00:30:33.462Z,7.56
2016-07-25T00:30:42.173Z,7.47
2016-07-25T00:30:50.915Z,7.58
2016-07-25T00:30:59.612Z,7.6
2016-07-25T00:31:08.296Z,7.55
2016-07-25T00:31:16.987Z,7.56
2016-07-25T00:31:25.702Z,7.49
2016-07-25T00:31:34.418Z,7.6
2016-07-25T00:31:43.132Z,7.45
2016-07-25T00:31:51.822Z,7.52
2016-07-25T00:32:00.576Z,7.42
2016-07-25T00:32:09.257Z,7.59
2016-07-25T00:32:17.997Z,7.53
2016-07-25T00:32:26.696Z,7.45
2016-07-25T00:32:35.400Z,7.5
2016-07-25T00:32:44.081Z,7.49
2016-07-25T00:32:52.789Z,7.47
2016-07-25T00:33:01.526Z,7.5
2016-07-25T00:33:10.207Z,7.49
2016-07-25T00:33:18.906Z,7.52
2016-07-25T00:33:27.628Z,7.5
2016-07-25T00:33:36.323Z,7.53
2016-07-25T00:33:45.007Z,7.52
2016-07-25T00:33:53.706Z,7.52
2016-07-25T00:34:02.404Z,7.5
2016-07-25T00:34:11.114Z,7.47
2016-07-25T00:34:19.801Z,7.47
2016-07-25T00:34:28.538Z,7.45
2016-07-25T00:34:37.216Z,7.49
2016-07-25T00:34:46.609Z,7.47
2016-07-25T00:34:55.279Z,7.5
2016-07-25T00:35:04.004Z,7.52
2016-07-25T00:35:12.722Z,7.52
2016-07-25T00:35:21.467Z,7.53
2016-07-25T00:35:30.183Z,7.45
2016-07-25T00:35:38.920Z,7.49
2016-07-25T00:35:47.621Z,7.47
2016-07-25T00:35:56.311Z,7.47
2016-07-25T00:36:05.008Z,7.5
2016-07-25T00:36:13.692Z,7.55
2016-07-25T00:36:22.405Z,7.45
2016-07-25T00:36:31.061Z,7.55
2016-07-25T00:36:39.762Z,7.44
2016-07-25T00:36:48.472Z,7.5
2016-07-25T00:36:57.195Z,7.5
2016-07-25T00:37:05.906Z,7.53
2016-07-25T00:37:14.587Z,7.44
2016-07-25T00:37:23.311Z,7.45
2016-07-25T00:37:32.047Z,7.49
2016-07-25T00:37:40.735Z,7.42
2016-07-25T00:37:49.453Z,7.52
2016-07-25T00:37:58.154Z,7.49
2016-07-25T00:38:06.809Z,7.58
2016-07-25T00:38:15.503Z,7.52
2016-07-25T00:38:24.181Z,7.55
2016-07-25T00:38:32.930Z,7.42
2016-07-25T00:38:41.652Z,7.45
2016-07-25T00:38:50.372Z,7.49
2016-07-25T00:38:59.754Z,7.55
2016-07-25T00:39:08.478Z,7.45
2016-07-25T00:39:17.160Z,7.52
2016-07-25T00:39:25.822Z,7.53
2016-07-25T00:39:34.532Z,7.45
2016-07-25T00:39:43.254Z,7.56
2016-07-25T00:39:51.978Z,7.52
2016-07-25T00:40:00.716Z,7.42
2016-07-25T00:40:09.413Z,7.5
2016-07-25T00:40:18.125Z,7.52
2016-07-25T00:40:26.821Z,7.58
2016-07-25T00:40:35.504Z,7.53
2016-07-25T00:40:44.236Z,7.5
2016-07-25T00:40:52.955Z,7.45
2016-07-25T00:41:01.649Z,7.45
2016-07-25T00:41:10.403Z,7.45
2016-07-25T00:41:19.165Z,7.49
2016-07-25T00:41:27.871Z,7.45
2016-07-25T00:41:36.639Z,7.53
2016-07-25T00:41:45.381Z,7.45
2016-07-25T00:41:54.109Z,7.44
2016-07-25T00:42:02.820Z,7.45
2016-07-25T00:42:11.505Z,7.44
2016-07-25T00:42:20.223Z,7.45
2016-07-25T00:42:28.939Z,7.55
2016-07-25T00:42:37.646Z,7.47
2016-07-25T00:42:46.382Z,7.42
2016-07-25T00:42:55.102Z,7.47
2016-07-25T00:43:03.762Z,7.47
2016-07-25T00:43:12.519Z,7.5
2016-07-25T00:43:21.226Z,7.6
2016-07-25T00:43:29.938Z,7.5
2016-07-25T00:43:39.331Z,7.59
2016-07-25T00:43:48.073Z,7.55
2016-07-25T00:43:56.765Z,7.49
2016-07-25T00:44:05.444Z,7.59
2016-07-25T00:44:14.178Z,7.58
2016-07-25T00:44:22.890Z,7.62
2016-07-25T00:44:31.641Z,7.47
2016-07-25T00:44:40.361Z,7.56
2016-07-25T00:44:49.105Z,7.49
2016-07-25T00:44:57.800Z,7.58
2016-07-25T00:45:06.487Z,7.59
2016-07-25T00:45:15.247Z,7.5
2016-07-25T00:45:23.962Z,7.55
2016-07-25T00:45:32.680Z,7.58
2016-07-25T00:45:41.384Z,7.56
2016-07-25T00:45:50.096Z,7.6
2016-07-25T00:45:58.792Z,7.59
2016-07-25T00:46:07.532Z,7.58
2016-07-25T00:46:16.208Z,7.58
2016-07-25T00:46:24.932Z,7.49
2016-07-25T00:46:33.655Z,7.55
2016-07-25T00:46:42.345Z,7.6
2016-07-25T00:46:51.099Z,7.62
2016-07-25T00:47:00.519Z,7.58
2016-07-25T00:47:09.229Z,7.62
2016-07-25T00:47:17.979Z,7.58
2016-07-25T00:47:26.724Z,7.58
2016-07-25T00:47:35.450Z,7.58
2016-07-25T00:47:44.173Z,7.6
2016-07-25T00:47:52.908Z,7.59
2016-07-25T00:48:01.607Z,7.6
2016-07-25T00:48:10.353Z,7.66
2016-07-25T00:48:19.042Z,7.59
2016-07-25T00:48:27.761Z,7.62
2016-07-25T00:48:36.496Z,7.55
2016-07-25T00:48:45.872Z,7.59
2016-07-25T00:48:54.572Z,7.58
2016-07-25T00:49:03.273Z,7.58
2016-07-25T00:49:12.010Z,7.62
2016-07-25T00:49:20.742Z,7.56
2016-07-25T00:49:29.470Z,7.56
2016-07-25T00:49:38.227Z,7.6
2016-07-25T00:49:46.965Z,7.55
2016-07-25T00:49:55.640Z,7.56
2016-07-25T00:50:04.315Z,7.55
2016-07-25T00:50:13.000Z,7.59
2016-07-25T00:50:21.731Z,7.62
2016-07-25T00:50:30.440Z,7.53
2016-07-25T00:50:39.141Z,7.56
2016-07-25T00:50:47.873Z,7.56
2016-07-25T00:50:56.595Z,7.55
2016-07-25T00:51:05.332Z,7.53
2016-07-25T00:51:13.999Z,7.55
2016-07-25T00:51:22.676Z,7.55
2016-07-25T00:51:31.386Z,7.59
2016-07-25T00:51:40.143Z,7.59
2016-07-25T00:51:48.849Z,7.56
2016-07-25T00:51:57.567Z,7.6
2016-07-25T00:52:06.265Z,7.66
2016-07-25T00:52:15.005Z,7.53
2016-07-25T00:52:23.736Z,7.58
2016-07-25T00:52:32.418Z,7.58
2016-07-25T00:52:41.142Z,7.6
2016-07-25T00:52:49.867Z,7.62
2016-07-25T00:52:58.574Z,7.55
2016-07-25T00:53:07.281Z,7.66
2016-07-25T00:53:16.028Z,7.63
2016-07-25T00:53:24.711Z,7.62
2016-07-25T00:53:33.391Z,7.6
2016-07-25T00:53:42.120Z,7.6
2016-07-25T00:53:50.796Z,7.56
2016-07-25T00:53:59.470Z,7.59
2016-07-25T00:54:08.175Z,7.59
2016-07-25T00:54:16.886Z,7.45
2016-07-25T00:54:25.590Z,7.6
2016-07-25T00:54:34.314Z,7.59
2016-07-25T00:54:43.016Z,7.62
2016-07-25T00:54:51.695Z,7.45
2016-07-25T00:55:00.419Z,7.45
2016-07-25T00:55:09.170Z,7.47
2016-07-25T00:55:17.893Z,7.62
2016-07-25T00:55:26.665Z,7.56
2016-07-25T00:55:35.358Z,7.58
2016-07-25T00:55:44.071Z,7.58
2016-07-25T00:55:52.784Z,7.42
2016-07-25T00:56:01.535Z,7.52
2016-07-25T00:56:10.248Z,7.47
2016-07-25T00:56:18.922Z,7.47
2016-07-25T00:56:27.622Z,7.52
2016-07-25T00:56:36.324Z,7.56
2016-07-25T00:56:45.078Z,7.55
2016-07-25T00:56:53.794Z,7.49
2016-07-25T00:57:02.517Z,7.47
2016-07-25T00:57:11.242Z,7.5
2016-07-25T00:57:19.951Z,7.44
2016-07-25T00:57:28.640Z,7.53
2016-07-25T00:57:37.369Z,7.53
2016-07-25T00:57:46.091Z,7.52
2016-07-25T00:57:54.776Z,7.55
2016-07-25T00:58:03.494Z,7.49
2016-07-25T00:58:12.202Z,7.52
2016-07-25T00:58:20.928Z,7.56
2016-07-25T00:58:29.623Z,7.52
2016-07-25T00:58:38.324Z,7.5
2016-07-25T00:58:47.025Z,7.5
2016-07-25T00:58:55.713Z,7.53
2016-07-25T00:59:04.396Z,7.49
2016-07-25T00:59:13.801Z,7.42
2016-07-25T00:59:22.535Z,7.55
2016-07-25T00:59:31.242Z,7.49
2016-07-25T00:59:39.962Z,7.52
2016-07-25T00:59:48.681Z,7.45
2016-07-25T00:59:57.422Z,7.44
2016-07-25T01:00:06.123Z,7.45
2016-07-25T01:00:14.864Z,7.44
2016-07-25T01:00:23.597Z,7.49
2016-07-25T01:00:32.308Z,7.47
2016-07-25T01:00:41.051Z,7.44
2016-07-25T01:00:49.771Z,7.52
2016-07-25T01:00:58.479Z,7.56
2016-07-25T01:01:07.202Z,7.5
2016-07-25T01:01:15.961Z,7.44
2016-07-25T01:01:24.672Z,7.42
2016-07-25T01:01:33.418Z,7.55
2016-07-25T01:01:42.128Z,7.5
2016-07-25T01:01:50.859Z,7.52
2016-07-25T01:01:59.590Z,7.45
2016-07-25T01:02:08.275Z,7.49
2016-07-25T01:02:17.014Z,7.52
2016-07-25T01:02:25.756Z,7.49
2016-07-25T01:02:34.481Z,7.52
2016-07-25T01:02:43.159Z,7.5
2016-07-25T01:02:51.826Z,7.5
2016-07-25T01:03:00.526Z,7.52
2016-07-25T01:03:09.212Z,7.47
2016-07-25T01:03:17.968Z,7.52
2016-07-25T01:03:26.695Z,7.53
2016-07-25T01:03:35.398Z,7.52
2016-07-25T01:03:44.087Z,7.53
2016-07-25T01:03:52.797Z,7.53
2016-07-25T01:04:01.480Z,7.53
2016-07-25T01:04:10.178Z,7.53
2016-07-25T01:04:18.890Z,7.53
2016-07-25T01:04:27.632Z,7.49
2016-07-25T01:04:36.313Z,7.53
2016-07-25T01:04:45.012Z,7.5
2016-07-25T01:04:53.714Z,7.53
2016-07-25T01:05:02.445Z,7.47
2016-07-25T01:05:11.202Z,7.47
2016-07-25T01:05:19.916Z,7.49
2016-07-25T01:05:28.631Z,7.5
2016-07-25T01:05:37.333Z,7.49
2016-07-25T01:05:46.722Z,7.47
2016-07-25T01:05:55.441Z,7.44
2016-07-25T01:06:04.159Z,7.4
2016-07-25T01:06:12.880Z,7.44
2016-07-25T01:06:21.554Z,7.44
2016-07-25T01:06:30.248Z,7.34
2016-07-25T01:06:39.644Z,7.44
2016-07-25T01:06:48.366Z,7.41
2016-07-25T01:06:57.106Z,7.42
2016-07-25T01:07:05.839Z,7.37
2016-07-25T01:07:14.569Z,7.38
2016-07-25T01:07:23.276Z,7.42
2016-07-25T01:07:31.977Z,7.38
2016-07-25T01:07:40.677Z,7.45
2016-07-25T01:07:49.355Z,7.37
2016-07-25T01:07:58.055Z,7.4
2016-07-25T01:08:06.763Z,7.42
2016-07-25T01:08:15.494Z,7.49
2016-07-25T01:08:24.192Z,7.37
2016-07-25T01:08:32.907Z,7.47
2016-07-25T01:08:41.632Z,7.37
2016-07-25T01:08:50.310Z,7.42
2016-07-25T01:08:59.010Z,7.34
2016-07-25T01:09:07.723Z,7.35
2016-07-25T01:09:16.460Z,7.37
2016-07-25T01:09:25.171Z,7.35
2016-07-25T01:09:33.875Z,7.44
2016-07-25T01:09:42.562Z,7.47
2016-07-25T01:09:51.287Z,7.47
2016-07-25T01:09:59.973Z,7.42
2016-07-25T01:10:08.662Z,7.4
2016-07-25T01:10:17.351Z,7.41
2016-07-25T01:10:26.064Z,7.49
2016-07-25T01:10:35.463Z,7.42
2016-07-25T01:10:44.205Z,7.44
2016-07-25T01:10:52.890Z,7.44
2016-07-25T01:11:01.625Z,7.45
2016-07-25T01:11:10.335Z,7.42
2016-07-25T01:11:19.054Z,7.4
2016-07-25T01:11:27.748Z,7.5
2016-07-25T01:11:36.486Z,7.49
2016-07-25T01:11:45.159Z,7.44
2016-07-25T01:11:53.858Z,7.52
2016-07-25T01:12:02.591Z,7.53
2016-07-25T01:12:11.293Z,7.5
2016-07-25T01:12:19.974Z,7.49
2016-07-25T01:12:28.705Z,7.47
2016-07-25T01:12:37.412Z,7.55
2016-07-25T01:12:46.118Z,7.5
2016-07-25T01:12:54.820Z,7.52
2016-07-25T01:13:03.531Z,7.45
2016-07-25T01:13:12.257Z,7.45
2016-07-25T01:13:20.981Z,7.45
2016-07-25T01:13:29.785Z,7.49
2016-07-25T01:13:38.521Z,7.5
2016-07-25T01:13:47.189Z,7.55
2016-07-25T01:13:55.916Z,7.44
2016-07-25T01:14:04.634Z,7.45
2016-07-25T01:14:13.372Z,7.55
2016-07-25T01:14:22.060Z,7.58
2016-07-25T01:14:30.808Z,7.5
2016-07-25T01:14:39.511Z,7.45
2016-07-25T01:14:48.205Z,7.55
2016-07-25T01:14:56.947Z,7.56
2016-07-25T01:15:05.679Z,7.62
2016-07-25T01:15:14.381Z,7.56
2016-07-25T01:15:23.097Z,7.59
2016-07-25T01:15:31.809Z,7.56
2016-07-25T01:15:40.551Z,7.62
2016-07-25T01:15:49.246Z,7.6
2016-07-25T01:15:57.951Z,7.6
2016-07-25T01:16:06.654Z,7.58
2016-07-25T01:16:15.364Z,7.47
2016-07-25T01:16:24.096Z,7.47
2016-07-25T01:16:32.834Z,7.58
2016-07-25T01:16:41.522Z,7.6
2016-07-25T01:16:50.214Z,7.58
2016-07-25T01:16:58.936Z,7.59
2016-07-25T01:17:07.626Z,7.58
2016-07-25T01:17:16.319Z,7.59
2016-07-25T01:17:25.051Z,7.58
2016-07-25T01:17:33.732Z,7.59
2016-07-25T01:17:42.486Z,7.63
2016-07-25T01:17:51.187Z,7.56
2016-07-25T01:18:00.590Z,7.53
2016-07-25T01:18:09.297Z,7.58
2016-07-25T01:18:18.030Z,7.6
2016-07-25T01:18:26.754Z,7.59
2016-07-25T01:18:35.462Z,7.49
2016-07-25T01:18:44.177Z,7.56
2016-07-25T01:18:52.889Z,7.59
2016-07-25T01:19:01.592Z,7.56
2016-07-25T01:19:10.265Z,7.59
2016-07-25T01:19:18.968Z,7.52
2016-07-25T01:19:28.374Z,7.44
2016-07-25T01:19:37.072Z,7.52
2016-07-25T01:19:46.436Z,7.56
2016-07-25T01:19:55.149Z,7.52
2016-07-25T01:20:03.835Z,7.45
2016-07-25T01:20:12.547Z,7.53
2016-07-25T01:20:21.256Z,7.45
2016-07-25T01:20:29.985Z,7.55
2016-07-25T01:20:38.727Z,7.56
2016-07-25T01:20:47.415Z,7.42
2016-07-25T01:20:56.131Z,7.49
2016-07-25T01:21:04.841Z,7.45
2016-07-25T01:21:13.584Z,7.44
2016-07-25T01:21:22.317Z,7.5
2016-07-25T01:21:31.009Z,7.47
2016-07-25T01:21:39.747Z,7.62
2016-07-25T01:21:48.426Z,7.56
2016-07-25T01:21:57.100Z,7.58
2016-07-25T01:22:05.806Z,7.63
2016-07-25T01:22:14.525Z,7.63
2016-07-25T01:22:23.246Z,7.63
2016-07-25T01:22:31.964Z,7.6
2016-07-25T01:22:40.654Z,7.58
2016-07-25T01:22:49.387Z,7.55
2016-07-25T01:22:58.082Z,7.52
2016-07-25T01:23:06.774Z,7.56
2016-07-25T01:23:15.498Z,7.59
2016-07-25T01:23:24.175Z,7.56
2016-07-25T01:23:32.885Z,7.63
2016-07-25T01:23:41.587Z,7.62
2016-07-25T01:23:50.319Z,7.69
2016-07-25T01:23:59.029Z,7.63
2016-07-25T01:24:07.706Z,7.69
2016-07-25T01:24:16.448Z,7.67
2016-07-25T01:24:25.161Z,7.66
2016-07-25T01:24:33.864Z,7.71
2016-07-25T01:24:42.572Z,7.69
2016-07-25T01:24:51.314Z,7.67
2016-07-25T01:25:00.724Z,7.69
2016-07-25T01:25:09.441Z,7.71
2016-07-25T01:25:18.129Z,7.67
2016-07-25T01:25:26.828Z,7.69
2016-07-25T01:25:35.546Z,7.71
2016-07-25T01:25:44.214Z,7.72
2016-07-25T01:25:52.938Z,7.79
2016-07-25T01:26:01.663Z,7.63
2016-07-25T01:26:10.380Z,7.75
2016-07-25T01:26:19.062Z,7.75
2016-07-25T01:26:27.793Z,7.79
2016-07-25T01:26:36.536Z,7.77
2016-07-25T01:26:45.964Z,7.82
2016-07-25T01:26:54.695Z,7.71
2016-07-25T01:27:03.414Z,7.84
2016-07-25T01:27:12.154Z,7.81
2016-07-25T01:27:20.829Z,7.77
2016-07-25T01:27:29.560Z,7.84
2016-07-25T01:27:38.262Z,7.78
2016-07-25T01:27:46.951Z,7.78
2016-07-25T01:27:56.332Z,7.84
2016-07-25T01:28:05.014Z,7.72
2016-07-25T01:28:13.718Z,7.84
2016-07-25T01:28:22.413Z,7.81
2016-07-25T01:28:31.133Z,7.77
2016-07-25T01:28:39.880Z,7.74
2016-07-25T01:28:48.566Z,7.74
2016-07-25T01:28:57.303Z,7.77
2016-07-25T01:29:06.034Z,7.77
2016-07-25T01:29:14.752Z,7.82
2016-07-25T01:29:23.441Z,7.74
2016-07-25T01:29:32.181Z,7.75
2016-07-25T01:29:40.917Z,7.87
2016-07-25T01:29:49.625Z,7.78
2016-07-25T01:29:58.305Z,7.81
2016-07-25T01:30:06.995Z,7.74
2016-07-25T01:30:15.698Z,7.82
2016-07-25T01:30:24.445Z,7.78
2016-07-25T01:30:33.169Z,7.78
2016-07-25T01:30:41.926Z,7.79
2016-07-25T01:30:50.659Z,7.79
2016-07-25T01:30:59.356Z,7.78
2016-07-25T01:31:08.065Z,7.74
2016-07-25T01:31:16.772Z,7.79
2016-07-25T01:31:25.492Z,7.81
2016-07-25T01:31:34.207Z,7.78
2016-07-25T01:31:42.923Z,7.84
2016-07-25T01:31:51.642Z,7.74
2016-07-25T01:32:00.372Z,7.78
2016-07-25T01:32:09.078Z,7.77
2016-07-25T01:32:17.793Z,7.69
2016-07-25T01:32:26.527Z,7.72
2016-07-25T01:32:35.192Z,7.69
2016-07-25T01:32:43.903Z,7.72
2016-07-25T01:32:52.624Z,7.69
2016-07-25T01:33:01.321Z,7.69
2016-07-25T01:33:10.742Z,7.72
2016-07-25T01:33:19.475Z,7.69
2016-07-25T01:33:28.215Z,7.66
2016-07-25T01:33:36.971Z,7.58
2016-07-25T01:33:45.650Z,7.58
2016-07-25T01:33:54.351Z,7.69
2016-07-25T01:34:03.095Z,7.63
2016-07-25T01:34:11.826Z,7.63
2016-07-25T01:34:20.530Z,7.62
2016-07-25T01:34:29.252Z,7.62
2016-07-25T01:34:37.975Z,7.6
2016-07-25T01:34:46.733Z,7.55
2016-07-25T01:34:55.478Z,7.6
2016-07-25T01:35:04.223Z,7.56
2016-07-25T01:35:12.920Z,7.59
2016-07-25T01:35:21.621Z,7.59
2016-07-25T01:35:30.305Z,7.6
2016-07-25T01:35:38.976Z,7.56
2016-07-25T01:35:47.682Z,7.66
2016-07-25T01:35:56.447Z,7.53
2016-07-25T01:36:05.191Z,7.55
2016-07-25T01:36:13.914Z,7.63
2016-07-25T01:36:22.650Z,7.6
2016-07-25T01:36:31.403Z,7.55
2016-07-25T01:36:40.155Z,7.59
2016-07-25T01:36:48.879Z,7.55
2016-07-25T01:36:57.625Z,7.59
2016-07-25T01:37:06.357Z,7.55
2016-07-25T01:37:15.041Z,7.66
2016-07-25T01:37:23.752Z,7.56
2016-07-25T01:37:32.430Z,7.6
2016-07-25T01:37:41.141Z,7.59
2016-07-25T01:37:49.887Z,7.62
2016-07-25T01:37:58.586Z,7.55
2016-07-25T01:38:07.309Z,7.58
2016-07-25T01:38:16.032Z,7.59
2016-07-25T01:38:24.760Z,7.59
2016-07-25T01:38:34.137Z,7.56
2016-07-25T01:38:42.866Z,7.62
2016-07-25T01:38:51.539Z,7.6
2016-07-25T01:39:00.258Z,7.47
2016-07-25T01:39:08.991Z,7.47
2016-07-25T01:39:17.722Z,7.53
2016-07-25T01:39:26.466Z,7.55
2016-07-25T01:39:35.209Z,7.42
2016-07-25T01:39:43.901Z,7.55
2016-07-25T01:39:52.609Z,7.55
2016-07-25T01:40:01.342Z,7.59
2016-07-25T01:40:10.047Z,7.58
2016-07-25T01:40:18.740Z,7.53
2016-07-25T01:40:27.471Z,7.52
2016-07-25T01:40:36.187Z,7.55
2016-07-25T01:40:44.915Z,7.45
2016-07-25T01:40:53.634Z,7.52
2016-07-25T01:41:02.353Z,7.45
2016-07-25T01:41:11.065Z,7.49
2016-07-25T01:41:19.753Z,7.55
2016-07-25T01:41:28.444Z,7.44
2016-07-25T01:41:37.123Z,7.45
2016-07-25T01:41:45.853Z,7.49
2016-07-25T01:41:54.577Z,7.5
2016-07-25T01:42:03.255Z,7.52
2016-07-25T01:42:12.607Z,7.4
2016-07-25T01:42:21.307Z,7.42
2016-07-25T01:42:30.000Z,7.44
2016-07-25T01:42:38.728Z,7.41
2016-07-25T01:42:47.453Z,7.47
2016-07-25T01:42:56.143Z,7.37
2016-07-25T01:43:04.866Z,7.44
2016-07-25T01:43:13.554Z,7.42
2016-07-25T01:43:22.299Z,7.37
2016-07-25T01:43:31.032Z,7.44
2016-07-25T01:43:39.753Z,7.4
2016-07-25T01:43:48.481Z,7.45
2016-07-25T01:43:57.218Z,7.45
2016-07-25T01:44:05.939Z,7.4
2016-07-25T01:44:14.615Z,7.4
2016-07-25T01:44:23.310Z,7.38
2016-07-25T01:44:32.037Z,7.37
2016-07-25T01:44:40.786Z,7.37
2016-07-25T01:44:49.534Z,7.29
2016-07-25T01:44:58.286Z,7.31
2016-07-25T01:45:06.983Z,7.31
2016-07-25T01:45:15.686Z,7.29
2016-07-25T01:45:24.389Z,7.31
2016-07-25T01:45:33.129Z,7.27
2016-07-25T01:45:41.830Z,7.27
2016-07-25T01:45:50.559Z,7.22
2016-07-25T01:45:59.271Z,7.24
2016-07-25T01:46:08.672Z,7.22
2016-07-25T01:46:17.379Z,7.27
2016-07-25T01:46:26.096Z,7.29
2016-07-25T01:46:34.795Z,7.2
2016-07-25T01:46:43.498Z,7.23
2016-07-25T01:46:52.211Z,7.16
2016-07-25T01:47:00.907Z,7.24
2016-07-25T01:47:09.636Z,7.24
2016-07-25T01:47:18.315Z,7.24
2016-07-25T01:47:26.993Z,7.26
2016-07-25T01:47:35.703Z,7.22
2016-07-25T01:47:44.406Z,7.15
2016-07-25T01:47:53.142Z,7.17
2016-07-25T01:48:01.828Z,7.17
2016-07-25T01:48:10.566Z,7.17
2016-07-25T01:48:19.284Z,7.15
2016-07-25T01:48:27.995Z,7.19
2016-07-25T01:48:36.740Z,7.16
2016-07-25T01:48:45.470Z,7.17
2016-07-25T01:48:54.159Z,7.16
2016-07-25T01:49:02.890Z,7.17
2016-07-25T01:49:11.653Z,7.17
2016-07-25T01:49:20.345Z,7.16
2016-07-25T01:49:29.044Z,7.16
2016-07-25T01:49:37.738Z,7.2
2016-07-25T01:49:46.474Z,7.13
2016-07-25T01:49:55.207Z,7.15
2016-07-25T01:50:03.917Z,7.16
2016-07-25T01:50:12.604Z,7.15
2016-07-25T01:50:21.342Z,7.19
2016-07-25T01:50:30.064Z,7.16
2016-07-25T01:50:38.759Z,7.16
2016-07-25T01:50:47.491Z,7.13
2016-07-25T01:50:56.193Z,7.23
2016-07-25T01:51:04.920Z,7.13
2016-07-25T01:51:13.629Z,7.16
2016-07-25T01:51:22.372Z,7.13
2016-07-25T01:51:31.076Z,7.08
2016-07-25T01:51:39.826Z,7.09
2016-07-25T01:51:48.528Z,7.22
2016-07-25T01:51:57.248Z,7.08
2016-07-25T01:52:05.933Z,7.08
2016-07-25T01:52:14.630Z,7.05
2016-07-25T01:52:23.997Z,7.15
2016-07-25T01:52:32.701Z,7.15
2016-07-25T01:52:41.429Z,7.15
2016-07-25T01:52:50.132Z,7.08
2016-07-25T01:52:58.875Z,7.13
2016-07-25T01:53:07.570Z,7.04
2016-07-25T01:53:16.240Z,7.12
2016-07-25T01:53:24.983Z,7.05
2016-07-25T01:53:33.752Z,7.08
2016-07-25T01:53:42.458Z,7.08
2016-07-25T01:53:51.175Z,7.12
2016-07-25T01:53:59.870Z,7.07
2016-07-25T01:54:08.562Z,6.99
2016-07-25T01:54:17.307Z,7.05
2016-07-25T01:54:26.003Z,7.07
2016-07-25T01:54:34.683Z,7.07
2016-07-25T01:54:43.351Z,7.12
2016-07-25T01:54:52.086Z,7.04
2016-07-25T01:55:00.809Z,7.08
2016-07-25T01:55:09.538Z,7.13
2016-07-25T01:55:18.236Z,7.08
2016-07-25T01:55:26.926Z,7.02
2016-07-25T01:55:35.641Z,7.09
2016-07-25T01:55:44.326Z,7.13
2016-07-25T01:55:53.050Z,7.07
2016-07-25T01:56:01.765Z,7.02
2016-07-25T01:56:10.476Z,7.04
2016-07-25T01:56:19.166Z,7.08
2016-07-25T01:56:27.892Z,7.01
2016-07-25T01:56:36.603Z,7.02